Time;durP1;ratioP1;P1;durP2;ratioP2;P2;SDS_P1;SDS_P2;PMS_P1;PMS_P2;Temp;Humidity;BMP_temperature;BMP_pressure;BME280_temperature;BME280_humidity;BME280_pressure;Samples;Min_cycle;Max_cycle;Signal;HPM_P1;HPM_P2
2022/03/22 00:01:04;;;;;;;22.83;11.97;;;5.90;59.30;;;;;;5092166;28;20452;-74
2022/03/22 00:03:30;;;;;;;21.80;12.13;;;5.90;59.70;;;;;;5092595;28;20214;-74
2022/03/22 00:05:56;;;;;;;20.43;11.50;;;5.80;60.70;;;;;;5092447;28;20554;-75
2022/03/22 00:08:22;;;;;;;24.13;11.67;;;5.80;60.70;;;;;;5082123;28;20272;-74
2022/03/22 00:10:48;;;;;;;19.70;11.10;;;5.80;60.40;;;;;;5094615;28;20347;-74
2022/03/22 00:13:14;;;;;;;23.90;11.33;;;5.80;60.70;;;;;;5095628;28;20462;-75
2022/03/22 00:15:40;;;;;;;22.83;12.70;;;5.80;61.00;;;;;;5091466;28;20426;-73
2022/03/22 00:18:06;;;;;;;26.30;12.87;;;5.80;61.90;;;;;;5092442;28;20461;-75
2022/03/22 00:20:33;;;;;;;25.87;13.83;;;5.70;62.90;;;;;;5091618;28;20532;-74
2022/03/22 00:22:59;;;;;;;24.00;11.73;;;5.60;63.40;;;;;;5091001;28;20239;-75
2022/03/22 00:25:25;;;;;;;24.00;11.60;;;5.50;63.70;;;;;;5091136;28;20417;-74
2022/03/22 00:27:53;;;;;;;24.87;11.97;;;5.50;63.90;;;;;;5090459;28;20409;-75
2022/03/22 00:30:31;;;;;;;21.53;11.87;;;5.50;63.90;;;;;;5092098;28;20187;-75
2022/03/22 00:32:59;;;;;;;23.20;12.83;;;5.40;63.40;;;;;;5091833;28;20469;-73
2022/03/22 00:35:29;;;;;;;23.50;12.73;;;5.40;63.70;;;;;;5073875;28;20786;-74
2022/03/22 00:37:58;;;;;;;20.90;12.10;;;5.30;63.90;;;;;;5091870;28;20481;-74
2022/03/22 00:40:25;;;;;;;21.23;11.70;;;5.30;64.40;;;;;;5079398;28;20457;-74
2022/03/22 00:42:53;;;;;;;23.33;11.57;;;5.30;64.20;;;;;;5092396;28;20480;-74
2022/03/22 00:45:21;;;;;;;26.60;13.23;;;5.30;64.10;;;;;;5092270;28;20935;-73
2022/03/22 00:47:49;;;;;;;25.87;13.70;;;5.30;64.50;;;;;;5091997;28;20414;-74
2022/03/22 00:50:17;;;;;;;25.83;13.17;;;5.30;64.80;;;;;;5092056;28;20444;-72
2022/03/22 00:52:43;;;;;;;28.87;12.90;;;5.10;65.30;;;;;;5092094;28;20974;-73
2022/03/22 00:55:12;;;;;;;23.07;12.50;;;5.10;65.80;;;;;;5092608;28;20436;-72
2022/03/22 00:57:42;;;;;;;23.17;11.63;;;5.10;66.00;;;;;;5092020;28;20924;-74
2022/03/22 01:00:13;;;;;;;27.63;12.50;;;5.00;66.10;;;;;;5092479;28;20413;-71
2022/03/22 01:02:42;;;;;;;23.47;11.93;;;5.00;66.30;;;;;;5080483;28;20465;-72
2022/03/22 01:05:15;;;;;;;29.13;13.27;;;5.00;66.60;;;;;;5077353;28;20413;-72
2022/03/22 01:07:42;;;;;;;28.60;12.10;;;4.80;66.60;;;;;;5085487;28;20413;-72
2022/03/22 01:10:10;;;;;;;25.10;13.60;;;4.80;66.90;;;;;;5091085;28;20425;-72
2022/03/22 01:12:38;;;;;;;24.40;12.30;;;4.90;66.90;;;;;;5091249;28;20532;-73
2022/03/22 01:15:05;;;;;;;23.47;12.47;;;4.80;66.70;;;;;;5090322;28;21267;-71
2022/03/22 01:17:33;;;;;;;21.73;12.63;;;4.70;67.20;;;;;;5083752;28;20446;-70
2022/03/22 01:19:58;;;;;;;20.57;11.93;;;4.70;67.20;;;;;;5090967;28;20470;-70
2022/03/22 01:22:25;;;;;;;23.60;11.90;;;4.70;67.20;;;;;;5090685;28;20465;-71
2022/03/22 01:24:54;;;;;;;28.03;12.57;;;4.60;67.50;;;;;;5082103;28;20211;-72
2022/03/22 01:27:22;;;;;;;25.30;12.83;;;4.60;67.50;;;;;;5095781;28;20459;-72
2022/03/22 01:29:49;;;;;;;18.70;11.23;;;4.50;67.60;;;;;;5095247;28;20919;-72
2022/03/22 01:32:15;;;;;;;30.00;13.60;;;4.50;67.70;;;;;;5092714;28;20571;-71
2022/03/22 01:34:44;;;;;;;29.50;13.07;;;4.50;67.70;;;;;;5091248;28;20428;-73
2022/03/22 01:37:11;;;;;;;28.67;12.90;;;4.40;67.70;;;;;;5082975;28;20433;-71
2022/03/22 01:39:37;;;;;;;23.60;12.00;;;4.40;68.20;;;;;;5076163;28;20455;-73
2022/03/22 01:42:04;;;;;;;24.40;12.67;;;4.40;68.30;;;;;;5094477;28;20448;-73
2022/03/22 01:44:29;;;;;;;23.20;11.43;;;4.40;68.60;;;;;;5091649;28;20405;-72
2022/03/22 01:47:03;;;;;;;26.37;12.77;;;4.40;68.60;;;;;;5072975;28;20462;-74
2022/03/22 01:49:30;;;;;;;21.17;11.60;;;4.40;68.90;;;;;;5090375;28;20295;-72
2022/03/22 01:51:56;;;;;;;24.07;12.80;;;4.40;69.20;;;;;;5090527;28;21271;-72
2022/03/22 01:54:22;;;;;;;24.17;12.77;;;4.40;69.40;;;;;;5078491;28;20971;-71
2022/03/22 01:56:49;;;;;;;31.43;13.40;;;4.40;69.10;;;;;;5089653;28;20424;-72
2022/03/22 01:59:15;;;;;;;19.30;11.37;;;4.40;69.10;;;;;;5090694;28;20496;-70
2022/03/22 02:07:14;;;;;;;24.30;12.43;;;4.30;68.60;;;;;;5090071;28;20462;-72
2022/03/22 02:09:40;;;;;;;27.70;12.43;;;4.40;68.90;;;;;;5090207;28;20631;-74
2022/03/22 02:12:07;;;;;;;22.73;11.50;;;4.30;69.10;;;;;;5089271;28;20441;-73
2022/03/22 02:14:33;;;;;;;23.53;13.30;;;4.40;69.10;;;;;;5089375;28;20425;-73
2022/03/22 02:16:59;;;;;;;22.60;11.30;;;4.30;69.10;;;;;;5081837;28;20428;-71
2022/03/22 02:19:25;;;;;;;24.47;12.80;;;4.30;69.40;;;;;;5089886;28;20482;-72
2022/03/22 02:22:00;;;;;;;24.33;13.27;;;4.30;69.50;;;;;;5089394;28;20440;-72
2022/03/22 02:24:26;;;;;;;23.83;12.03;;;4.30;69.50;;;;;;5081518;28;20187;-73
2022/03/22 02:26:52;;;;;;;23.77;12.40;;;4.30;69.50;;;;;;5071334;28;20424;-74
2022/03/22 02:29:18;;;;;;;26.37;13.03;;;4.30;69.50;;;;;;5090291;28;20197;-72
2022/03/22 02:31:43;;;;;;;25.93;13.10;;;4.40;69.40;;;;;;5090232;28;20552;-74
2022/03/22 02:34:09;;;;;;;24.30;11.97;;;4.30;69.20;;;;;;5089624;28;20435;-72
2022/03/22 02:36:35;;;;;;;27.50;12.73;;;4.30;69.50;;;;;;5090983;28;20193;-72
2022/03/22 02:39:01;;;;;;;24.37;11.90;;;4.30;69.50;;;;;;5091306;28;20268;-72
2022/03/22 02:41:26;;;;;;;24.10;12.37;;;4.30;69.50;;;;;;5089271;28;20697;-72
2022/03/22 02:43:53;;;;;;;26.57;14.10;;;4.20;69.80;;;;;;5088930;28;20692;-71
2022/03/22 02:46:19;;;;;;;21.67;12.30;;;4.10;70.10;;;;;;5088854;28;20478;-71
2022/03/22 02:48:46;;;;;;;26.90;12.70;;;4.10;70.50;;;;;;5089180;28;20441;-73
2022/03/22 02:51:12;;;;;;;29.90;13.97;;;4.10;70.70;;;;;;5090530;28;20502;-74
2022/03/22 02:53:39;;;;;;;24.40;12.70;;;4.10;70.50;;;;;;5093297;28;20482;-72
2022/03/22 02:56:05;;;;;;;21.53;12.10;;;4.10;70.50;;;;;;5077872;28;20516;-73
2022/03/22 02:58:33;;;;;;;31.07;14.10;;;4.10;70.40;;;;;;5093549;28;20978;-71
2022/03/22 03:00:59;;;;;;;24.77;12.87;;;4.00;70.20;;;;;;5093491;28;20460;-72
2022/03/22 03:03:25;;;;;;;23.03;12.20;;;3.90;71.00;;;;;;5092953;28;20464;-73
2022/03/22 03:05:52;;;;;;;29.30;14.50;;;3.90;71.40;;;;;;5092998;28;20444;-75
2022/03/22 03:08:18;;;;;;;26.90;12.00;;;4.00;71.60;;;;;;5094489;28;20243;-73
2022/03/22 03:10:45;;;;;;;24.73;13.17;;;3.90;70.50;;;;;;5099506;28;20424;-73
2022/03/22 03:13:12;;;;;;;23.57;11.80;;;3.90;70.20;;;;;;5083925;28;20943;-72
2022/03/22 03:15:37;;;;;;;25.37;12.33;;;3.90;70.80;;;;;;5093016;28;20424;-74
2022/03/22 03:18:04;;;;;;;24.13;12.67;;;4.00;69.90;;;;;;5093779;28;20520;-72
2022/03/22 03:20:30;;;;;;;20.10;12.10;;;4.00;69.10;;;;;;5093345;28;20206;-72
2022/03/22 03:22:56;;;;;;;26.40;13.70;;;3.90;69.50;;;;;;5092734;28;20586;-73
2022/03/22 03:25:22;;;;;;;22.93;12.50;;;3.90;70.20;;;;;;5092217;28;20429;-73
2022/03/22 03:27:48;;;;;;;20.60;11.67;;;3.90;70.50;;;;;;5093181;28;20468;-76
2022/03/22 03:30:14;;;;;;;24.60;12.43;;;3.90;70.70;;;;;;5092864;28;20273;-73
2022/03/22 03:32:40;;;;;;;28.73;13.10;;;3.90;70.70;;;;;;5092987;28;20452;-71
2022/03/22 03:35:06;;;;;;;26.70;12.50;;;3.90;70.80;;;;;;5077097;28;20417;-72
2022/03/22 03:37:35;;;;;;;27.63;12.80;;;3.90;70.80;;;;;;5092450;28;20425;-72
2022/03/22 03:40:04;;;;;;;26.53;13.07;;;3.90;70.80;;;;;;5092539;28;20919;-72
2022/03/22 03:42:30;;;;;;;24.37;13.07;;;3.80;71.00;;;;;;5082270;28;20507;-73
2022/03/22 03:47:40;;;;;;;27.23;12.70;;;3.80;71.30;;;;;;5093749;28;20545;-73
2022/03/22 03:50:07;;;;;;;25.50;12.80;;;3.90;71.30;;;;;;5093985;28;20465;-74
2022/03/22 03:52:37;;;;;;;24.43;12.47;;;3.80;71.30;;;;;;5092737;28;20451;-73
2022/03/22 03:55:06;;;;;;;22.37;13.20;;;3.80;71.30;;;;;;5094298;28;20456;-72
2022/03/22 03:57:32;;;;;;;25.93;12.50;;;3.80;71.40;;;;;;5094033;28;20763;-72
2022/03/22 03:59:59;;;;;;;27.20;12.93;;;3.80;71.00;;;;;;5092807;28;20440;-72
2022/03/22 04:02:24;;;;;;;25.37;12.33;;;3.80;70.70;;;;;;5092628;28;20496;-74
2022/03/22 04:04:55;;;;;;;26.10;12.90;;;3.80;70.40;;;;;;5092734;28;20950;-75
2022/03/22 04:07:22;;;;;;;26.40;12.77;;;3.90;70.50;;;;;;5093210;28;20460;-74
2022/03/22 04:09:48;;;;;;;27.47;13.00;;;3.80;70.70;;;;;;5092608;28;20516;-74
2022/03/22 04:12:14;;;;;;;24.83;13.33;;;3.90;70.70;;;;;;5077168;28;20452;-74
2022/03/22 04:14:40;;;;;;;23.47;11.40;;;3.90;70.80;;;;;;5091535;28;20425;-73
2022/03/22 04:17:09;;;;;;;24.57;13.27;;;3.80;70.80;;;;;;5083938;28;20481;-73
2022/03/22 04:19:36;;;;;;;25.23;13.40;;;3.80;71.00;;;;;;5091645;28;20425;-72
2022/03/22 04:22:06;;;;;;;26.00;13.17;;;3.80;70.80;;;;;;5090323;28;20453;-72
2022/03/22 04:24:32;;;;;;;29.37;15.00;;;3.80;71.00;;;;;;5091087;28;20468;-73
2022/03/22 04:32:41;;;;;;;26.97;13.20;;;3.80;70.80;;;;;;5091584;28;20842;-71
2022/03/22 04:32:43;;;;;;;26.50;12.90;;;3.70;70.80;;;;;;5091634;28;20435;-73
2022/03/22 04:35:20;;;;;;;27.73;13.50;;;3.70;71.00;;;;;;5091328;28;20512;-71
2022/03/22 04:37:50;;;;;;;27.70;13.53;;;3.70;71.00;;;;;;5091488;28;20443;-71
2022/03/22 04:40:17;;;;;;;30.13;14.37;;;3.60;70.40;;;;;;5092290;28;20429;-71
2022/03/22 04:42:43;;;;;;;29.67;13.80;;;3.60;71.00;;;;;;5092465;28;20468;-71
2022/03/22 04:45:09;;;;;;;30.53;13.73;;;3.60;71.00;;;;;;5093452;28;20533;-72
2022/03/22 04:47:36;;;;;;;28.43;13.77;;;3.60;71.30;;;;;;5093203;28;20417;-71
2022/03/22 04:50:06;;;;;;;27.17;13.77;;;3.60;71.10;;;;;;5092300;28;20437;-73
2022/03/22 04:58:02;;;;;;;27.70;14.40;;;3.50;71.40;;;;;;5088858;28;20451;-74
2022/03/22 05:00:28;;;;;;;23.87;13.07;;;3.50;71.70;;;;;;5091724;28;20444;-74
2022/03/22 05:02:54;;;;;;;30.10;13.93;;;3.50;71.80;;;;;;5087728;28;20465;-73
2022/03/22 05:06:25;;;;;;;27.20;12.97;;;3.50;71.70;;;;;;5090833;28;20420;-74
2022/03/22 05:08:05;;;;;;;31.50;15.17;;;3.50;71.80;;;;;;5091570;28;20183;-73
2022/03/22 05:10:32;;;;;;;21.37;12.20;;;3.40;72.10;;;;;;5084355;28;20418;-74
2022/03/22 05:12:58;;;;;;;32.43;14.30;;;3.50;72.10;;;;;;5091059;28;20558;-74
2022/03/22 05:15:24;;;;;;;27.67;13.27;;;3.50;72.10;;;;;;5087248;28;20437;-74
2022/03/22 05:17:51;;;;;;;25.70;13.03;;;3.50;72.00;;;;;;5086939;28;20648;-74
2022/03/22 05:20:17;;;;;;;27.77;13.40;;;3.40;72.10;;;;;;5078666;28;20221;-72
2022/03/22 05:22:44;;;;;;;27.77;14.20;;;3.40;72.10;;;;;;5090698;28;20538;-72
2022/03/22 05:25:10;;;;;;;29.00;14.10;;;3.40;72.10;;;;;;5092036;28;20791;-74
2022/03/22 05:27:39;;;;;;;30.60;15.80;;;3.30;72.10;;;;;;5092164;28;20460;-75
2022/03/22 05:30:06;;;;;;;30.13;14.47;;;3.30;72.10;;;;;;5081187;28;20457;-74
2022/03/22 05:32:32;;;;;;;29.80;13.57;;;3.30;72.30;;;;;;5090739;28;20864;-74
2022/03/22 05:34:58;;;;;;;26.93;13.20;;;3.30;72.40;;;;;;5072961;28;20461;-74
2022/03/22 05:37:24;;;;;;;26.50;13.93;;;3.30;72.00;;;;;;5090735;28;20528;-75
2022/03/22 05:39:50;;;;;;;29.60;13.77;;;3.30;72.10;;;;;;5090661;28;20232;-74
2022/03/22 05:42:16;;;;;;;26.93;13.70;;;3.40;71.70;;;;;;5073704;28;20974;-73
2022/03/22 05:44:43;;;;;;;25.23;14.40;;;3.40;71.40;;;;;;5089869;28;20278;-73
2022/03/22 05:47:09;;;;;;;30.10;15.50;;;3.40;71.80;;;;;;5090037;28;20457;-75
2022/03/22 05:49:36;;;;;;;30.13;14.03;;;3.40;72.60;;;;;;5090053;28;20437;-75
2022/03/22 05:52:03;;;;;;;31.27;14.50;;;3.40;73.20;;;;;;5089948;28;20540;-73
2022/03/22 05:54:29;;;;;;;27.27;14.30;;;3.50;73.20;;;;;;5089417;28;20428;-74
2022/03/22 05:56:55;;;;;;;29.13;14.60;;;3.40;72.40;;;;;;5076912;28;20421;-78
2022/03/22 05:59:20;;;;;;;28.13;14.47;;;3.20;72.40;;;;;;5091517;28;20413;-77
2022/03/22 06:01:46;;;;;;;29.77;14.90;;;3.20;73.00;;;;;;5091266;28;20528;-77
2022/03/22 06:04:13;;;;;;;30.17;14.13;;;3.20;73.00;;;;;;5090670;28;20218;-78
2022/03/22 06:06:39;;;;;;;29.07;15.50;;;3.20;73.20;;;;;;5091655;28;20198;-79
2022/03/22 06:09:05;;;;;;;36.17;16.17;;;3.20;73.00;;;;;;5091757;28;20428;-78
2022/03/22 06:11:35;;;;;;;34.67;14.33;;;3.20;73.50;;;;;;5092729;28;20445;-79
2022/03/22 06:14:05;;;;;;;29.80;14.80;;;3.30;73.30;;;;;;5091269;28;20919;-77
2022/03/22 06:16:31;;;;;;;31.90;15.10;;;3.40;73.00;;;;;;5083449;28;20516;-77
2022/03/22 06:18:58;;;;;;;35.80;14.60;;;3.40;73.30;;;;;;5092827;28;20425;-76
2022/03/22 06:21:24;;;;;;;31.47;17.37;;;3.50;73.90;;;;;;5083007;28;20990;-75
2022/03/22 06:23:50;;;;;;;32.17;15.57;;;3.60;73.30;;;;;;5090530;28;20560;-76
2022/03/22 06:26:16;;;;;;;30.30;15.43;;;3.70;73.00;;;;;;5090750;28;20199;-75
2022/03/22 06:28:42;;;;;;;26.93;15.03;;;3.80;72.90;;;;;;5075994;28;20440;-76
2022/03/22 06:31:09;;;;;;;28.70;15.93;;;3.90;72.00;;;;;;5091796;28;20820;-74
2022/03/22 06:33:35;;;;;;;30.23;15.27;;;3.90;70.70;;;;;;5093726;28;20433;-77
2022/03/22 06:36:01;;;;;;;28.37;15.73;;;3.90;69.40;;;;;;5093282;28;20485;-76
2022/03/22 06:38:28;;;;;;;28.83;15.17;;;3.90;69.50;;;;;;5092744;28;20498;-76
2022/03/22 06:40:54;;;;;;;41.70;15.50;;;4.00;69.50;;;;;;5091736;28;20570;-76
2022/03/22 06:43:20;;;;;;;33.43;15.93;;;4.00;69.10;;;;;;5091210;28;20957;-76
2022/03/22 06:45:46;;;;;;;31.13;15.63;;;3.90;69.50;;;;;;5095184;28;20198;-76
2022/03/22 06:48:14;;;;;;;31.67;15.97;;;4.00;69.50;;;;;;5082330;28;20820;-77
2022/03/22 06:50:40;;;;;;;31.57;16.80;;;4.10;69.50;;;;;;5070143;28;20479;-77
2022/03/22 06:53:07;;;;;;;38.30;18.03;;;4.10;69.50;;;;;;5087994;28;20958;-76
2022/03/22 06:55:34;;;;;;;37.20;16.37;;;4.10;69.70;;;;;;5096148;28;20440;-75
2022/03/22 06:58:00;;;;;;;37.63;17.93;;;4.20;69.70;;;;;;5098817;28;20579;-76
2022/03/22 07:00:27;;;;;;;82.20;24.13;;;4.30;69.80;;;;;;5105453;28;20425;-75
2022/03/22 07:02:54;;;;;;;45.50;17.60;;;4.30;69.90;;;;;;5112496;28;20459;-76
2022/03/22 07:05:20;;;;;;;34.33;16.87;;;4.40;69.50;;;;;;5102226;28;20461;-74
2022/03/22 07:07:46;;;;;;;34.03;16.67;;;4.50;68.20;;;;;;5092032;28;20475;-75
2022/03/22 07:10:14;;;;;;;36.67;17.83;;;4.60;67.60;;;;;;5101443;28;20432;-76
2022/03/22 07:13:00;;;;;;;32.00;16.20;;;4.80;67.00;;;;;;5098417;28;20305;-75
2022/03/22 07:15:35;;;;;;;41.00;18.53;;;4.90;67.50;;;;;;5099374;28;20429;-76
2022/03/22 07:18:06;;;;;;;37.97;18.37;;;5.10;68.00;;;;;;5093227;28;20505;-76
2022/03/22 07:20:32;;;;;;;32.13;17.63;;;5.20;67.90;;;;;;5080917;28;20496;-76
2022/03/22 07:22:59;;;;;;;32.83;18.57;;;5.30;66.90;;;;;;5091893;28;20464;-75
2022/03/22 07:25:25;;;;;;;39.70;18.60;;;5.40;66.70;;;;;;5078934;28;20417;-75
2022/03/22 07:27:51;;;;;;;34.93;17.27;;;5.50;66.90;;;;;;5096811;28;20436;-76
2022/03/22 07:30:17;;;;;;;38.27;18.20;;;5.50;66.90;;;;;;5093998;28;20247;-75
2022/03/22 07:32:45;;;;;;;43.60;20.03;;;5.60;67.00;;;;;;5079028;28;20498;-75
2022/03/22 07:35:11;;;;;;;39.53;19.07;;;5.70;66.60;;;;;;5092317;28;20425;-76
2022/03/22 07:37:38;;;;;;;41.23;19.30;;;5.70;66.00;;;;;;5091597;28;20421;-77
2022/03/22 07:40:07;;;;;;;34.60;18.57;;;5.70;65.80;;;;;;5083418;28;21074;-75
2022/03/22 07:42:33;;;;;;;34.73;18.33;;;5.80;66.00;;;;;;5092978;28;20460;-76
2022/03/22 07:45:01;;;;;;;34.60;17.90;;;5.80;65.60;;;;;;5093986;28;20425;-76
2022/03/22 07:47:28;;;;;;;34.40;17.90;;;5.90;65.30;;;;;;5086129;28;20263;-76
2022/03/22 07:53:00;;;;;;;33.20;18.53;;;6.00;65.30;;;;;;5095120;28;20867;-76
2022/03/22 07:55:30;;;;;;;38.60;19.00;;;6.00;65.10;;;;;;5093085;28;20500;-76
2022/03/22 07:57:58;;;;;;;36.30;18.53;;;6.10;64.70;;;;;;5070846;28;20461;-76
2022/03/22 08:00:26;;;;;;;39.43;18.87;;;6.20;64.50;;;;;;5085917;28;20437;-77
2022/03/22 08:02:56;;;;;;;40.90;18.70;;;6.30;64.40;;;;;;5097484;28;20468;-76
2022/03/22 08:05:23;;;;;;;57.53;20.20;;;6.50;63.70;;;;;;5075682;28;20470;-76
2022/03/22 08:07:49;;;;;;;38.87;19.80;;;6.60;63.50;;;;;;5093257;28;20417;-77
2022/03/22 08:10:15;;;;;;;33.27;16.60;;;6.70;62.60;;;;;;5069480;28;20437;-76
2022/03/22 08:12:41;;;;;;;36.20;18.20;;;6.80;62.20;;;;;;5092225;28;20452;-76
2022/03/22 08:15:08;;;;;;;35.27;18.10;;;6.90;61.60;;;;;;5093448;28;20186;-75
2022/03/22 08:17:39;;;;;;;30.93;17.47;;;7.00;61.20;;;;;;5093716;28;21091;-75
2022/03/22 08:20:06;;;;;;;37.87;18.67;;;7.00;60.90;;;;;;5094330;28;20417;-74
2022/03/22 08:22:33;;;;;;;36.87;18.80;;;7.10;60.40;;;;;;5093604;28;20468;-76
2022/03/22 08:24:59;;;;;;;36.70;18.10;;;7.20;59.90;;;;;;5095114;28;20460;-76
2022/03/22 08:27:24;;;;;;;35.13;17.37;;;7.40;59.50;;;;;;5094091;28;20428;-75
2022/03/22 08:29:51;;;;;;;38.80;18.80;;;7.50;58.70;;;;;;5094461;28;20425;-75
2022/03/22 08:32:17;;;;;;;34.93;17.50;;;7.60;58.10;;;;;;5094262;28;20195;-76
2022/03/22 08:34:43;;;;;;;33.50;17.30;;;7.60;58.40;;;;;;5095932;28;20420;-76
2022/03/22 08:37:08;;;;;;;37.10;18.27;;;7.70;58.20;;;;;;5093905;28;20508;-75
2022/03/22 08:39:34;;;;;;;27.17;15.83;;;7.80;58.40;;;;;;5093092;28;20460;-76
2022/03/22 08:42:00;;;;;;;33.43;17.30;;;8.00;57.80;;;;;;5093317;28;20207;-75
2022/03/22 08:44:26;;;;;;;33.03;17.40;;;8.20;57.60;;;;;;5093078;28;20221;-75
2022/03/22 08:46:51;;;;;;;37.13;18.50;;;8.30;57.30;;;;;;5080694;28;20506;-74
2022/03/22 08:49:18;;;;;;;35.50;17.70;;;8.40;57.20;;;;;;5093435;28;20187;-77
2022/03/22 08:51:43;;;;;;;34.50;18.80;;;8.50;56.80;;;;;;5094843;28;20210;-74
2022/03/22 08:54:09;;;;;;;38.43;17.47;;;8.60;56.20;;;;;;5093908;28;20425;-75
2022/03/22 08:56:35;;;;;;;29.20;16.87;;;8.70;55.80;;;;;;5094842;28;20190;-76
2022/03/22 08:59:01;;;;;;;30.77;16.67;;;8.80;55.70;;;;;;5095076;28;20207;-76
2022/03/22 09:01:30;;;;;;;30.77;16.50;;;8.80;55.70;;;;;;5092132;28;20238;-76
2022/03/22 09:06:40;;;;;;;31.53;17.60;;;9.10;55.00;;;;;;5108631;28;20412;-76
2022/03/22 09:09:09;;;;;;;37.90;17.70;;;9.20;54.60;;;;;;5110234;28;20414;-75
2022/03/22 09:11:37;;;;;;;33.90;18.77;;;9.30;54.50;;;;;;5108569;28;20206;-75
2022/03/22 09:14:04;;;;;;;35.67;18.63;;;9.50;54.10;;;;;;5102839;28;20783;-74
2022/03/22 09:16:32;;;;;;;36.13;17.90;;;9.50;54.10;;;;;;5104208;28;20425;-76
2022/03/22 09:18:58;;;;;;;32.97;17.80;;;9.60;54.00;;;;;;5096703;28;20504;-76
2022/03/22 09:21:24;;;;;;;41.07;18.23;;;9.70;53.60;;;;;;5078130;28;20484;-76
2022/03/22 09:23:50;;;;;;;41.50;20.40;;;9.80;53.30;;;;;;5096683;28;21047;-77
2022/03/22 09:26:16;;;;;;;38.00;18.90;;;9.90;53.30;;;;;;5093958;28;20453;-74
2022/03/22 09:28:42;;;;;;;37.63;18.87;;;10.00;52.90;;;;;;5095727;28;20239;-76
2022/03/22 09:31:08;;;;;;;34.53;17.33;;;10.10;52.90;;;;;;5097131;28;20487;-75
2022/03/22 09:33:34;;;;;;;34.23;18.20;;;10.20;52.80;;;;;;5083967;28;21002;-76
2022/03/22 09:35:59;;;;;;;35.77;19.77;;;10.30;52.40;;;;;;5095302;28;20428;-75
2022/03/22 09:38:25;;;;;;;32.53;18.53;;;10.40;52.00;;;;;;5095310;28;20179;-76
2022/03/22 09:40:54;;;;;;;35.40;19.70;;;10.50;52.10;;;;;;5094610;28;20187;-76
2022/03/22 09:43:24;;;;;;;42.57;18.20;;;10.60;51.80;;;;;;5095233;28;20199;-75
2022/03/22 09:45:51;;;;;;;32.80;18.47;;;10.70;51.60;;;;;;5099375;28;20417;-74
2022/03/22 09:48:17;;;;;;;33.33;18.00;;;10.80;51.70;;;;;;5103890;28;20429;-74
2022/03/22 09:53:28;;;;;;;33.17;18.20;;;11.00;51.70;;;;;;5102166;28;20411;-76
2022/03/22 09:55:53;;;;;;;38.37;18.80;;;11.10;51.20;;;;;;5105449;28;20478;-75
2022/03/22 09:58:19;;;;;;;33.70;18.97;;;11.10;51.20;;;;;;5109718;28;20187;-74
2022/03/22 10:00:46;;;;;;;35.23;19.63;;;11.20;51.00;;;;;;5103278;28;20203;-75
2022/03/22 10:03:21;;;;;;;37.17;19.53;;;11.30;50.70;;;;;;5102303;28;20210;-75
2022/03/22 10:06:00;;;;;;;31.57;18.40;;;11.40;50.60;;;;;;5097369;28;20421;-76
2022/03/22 10:08:26;;;;;;;30.63;17.63;;;11.60;50.30;;;;;;5096102;28;20868;-75
2022/03/22 10:10:54;;;;;;;34.37;18.03;;;11.70;49.50;;;;;;5093861;28;20470;-74
2022/03/22 10:13:19;;;;;;;34.77;18.43;;;11.80;49.50;;;;;;5093433;28;20217;-75
2022/03/22 10:15:46;;;;;;;34.17;17.50;;;11.80;49.30;;;;;;5094425;28;20421;-74
2022/03/22 10:18:12;;;;;;;31.93;18.20;;;12.00;48.70;;;;;;5093676;28;20482;-76
2022/03/22 10:20:40;;;;;;;30.77;16.70;;;12.00;48.20;;;;;;5094254;28;20421;-75
2022/03/22 10:23:10;;;;;;;30.00;18.30;;;12.10;48.20;;;;;;5079294;28;20464;-75
2022/03/22 10:25:40;;;;;;;39.70;19.07;;;12.20;47.70;;;;;;5095023;28;20417;-75
2022/03/22 10:28:07;;;;;;;31.50;18.10;;;12.30;47.40;;;;;;5094007;28;20594;-75
2022/03/22 10:30:34;;;;;;;40.97;20.60;;;12.40;47.10;;;;;;5093599;28;20508;-75
2022/03/22 10:33:00;;;;;;;36.90;18.63;;;12.40;47.00;;;;;;5092736;28;20449;-76
2022/03/22 10:35:34;;;;;;;45.30;19.93;;;12.50;46.70;;;;;;5093781;28;20425;-77
2022/03/22 10:38:06;;;;;;;37.27;20.70;;;12.60;46.30;;;;;;5080060;28;20477;-76
2022/03/22 10:40:40;;;;;;;35.40;18.00;;;12.60;45.80;;;;;;5095035;28;20420;-76
2022/03/22 10:43:10;;;;;;;49.77;19.23;;;12.80;45.80;;;;;;5091870;28;20472;-75
2022/03/22 10:45:54;;;;;;;31.90;17.50;;;12.90;45.10;;;;;;5079253;28;20894;-76
2022/03/22 10:48:23;;;;;;;30.50;16.23;;;13.10;43.90;;;;;;5091874;28;20444;-76
2022/03/22 10:50:49;;;;;;;33.33;17.43;;;13.30;42.80;;;;;;5092441;28;20421;-76
2022/03/22 10:53:20;;;;;;;31.00;17.17;;;13.60;42.70;;;;;;5091830;28;20418;-75
2022/03/22 10:55:46;;;;;;;31.47;17.63;;;14.00;41.90;;;;;;5092179;28;20960;-76
2022/03/22 10:58:15;;;;;;;37.80;19.33;;;14.30;39.90;;;;;;5092937;28;20925;-76
2022/03/22 11:00:45;;;;;;;35.47;17.80;;;14.60;39.40;;;;;;5081677;28;20438;-75
2022/03/22 11:03:12;;;;;;;39.90;19.93;;;15.00;38.40;;;;;;5078526;28;20521;-74
2022/03/22 11:05:41;;;;;;;36.23;19.57;;;15.30;37.50;;;;;;5084236;28;20413;-75
2022/03/22 11:08:08;;;;;;;34.57;17.93;;;15.40;37.10;;;;;;5092530;28;20895;-75
2022/03/22 11:10:33;;;;;;;32.77;18.70;;;15.70;37.00;;;;;;5092426;28;20502;-77
2022/03/22 11:13:00;;;;;;;34.50;18.30;;;16.00;36.00;;;;;;5094220;28;20441;-75
2022/03/22 11:15:29;;;;;;;35.30;19.67;;;16.00;35.50;;;;;;5096886;28;20178;-77
2022/03/22 11:17:57;;;;;;;38.80;18.73;;;16.10;35.70;;;;;;5082807;28;20428;-77
2022/03/22 11:20:25;;;;;;;32.00;18.00;;;16.30;35.30;;;;;;5088844;28;20420;-76
2022/03/22 11:22:54;;;;;;;35.57;18.53;;;16.40;34.80;;;;;;5097508;28;20566;-76
2022/03/22 11:25:35;;;;;;;35.03;18.43;;;16.40;34.80;;;;;;5098496;28;20424;-76
2022/03/22 11:28:12;;;;;;;34.57;18.77;;;16.50;33.70;;;;;;5094537;28;20842;-76
2022/03/22 11:30:40;;;;;;;33.80;18.83;;;16.40;33.70;;;;;;5098147;28;20421;-77
2022/03/22 11:36:01;;;;;;;36.17;19.30;;;16.40;33.90;;;;;;5102511;28;20439;-75
2022/03/22 11:38:45;;;;;;;32.50;18.33;;;16.60;33.50;;;;;;5094055;28;20490;-76
2022/03/22 11:44:33;;;;;;;31.10;18.00;;;16.60;33.10;;;;;;5095355;28;20464;-76
2022/03/22 11:47:14;;;;;;;32.00;18.53;;;16.70;32.90;;;;;;5086105;28;20868;-76
2022/03/22 11:50:01;;;;;;;31.27;17.00;;;16.70;32.30;;;;;;5096072;28;20440;-76
2022/03/22 11:52:41;;;;;;;37.33;17.77;;;16.80;32.00;;;;;;5094262;28;20478;-76
2022/03/22 11:55:22;;;;;;;28.50;16.67;;;16.70;31.90;;;;;;5094899;28;20939;-76
2022/03/22 11:58:04;;;;;;;35.43;17.87;;;16.70;30.70;;;;;;5094917;28;20413;-75
2022/03/22 12:00:46;;;;;;;28.40;16.57;;;16.60;30.50;;;;;;5093578;28;20413;-76
2022/03/22 12:03:14;;;;;;;30.30;16.60;;;16.60;30.90;;;;;;5093374;28;20875;-76
2022/03/22 12:05:41;;;;;;;30.93;17.03;;;16.90;30.40;;;;;;5088079;28;20572;-76
2022/03/22 12:08:09;;;;;;;30.93;17.00;;;16.90;29.80;;;;;;5092312;28;20425;-76
2022/03/22 12:10:35;;;;;;;28.93;16.00;;;16.70;30.10;;;;;;5076294;28;20564;-76
2022/03/22 12:13:02;;;;;;;29.20;17.10;;;17.00;30.40;;;;;;5094040;28;20445;-75
2022/03/22 12:15:28;;;;;;;30.87;17.57;;;17.30;29.60;;;;;;5092364;28;20470;-75
2022/03/22 12:17:54;;;;;;;33.10;17.03;;;17.30;29.90;;;;;;5093205;28;20422;-76
2022/03/22 12:20:22;;;;;;;33.60;18.10;;;17.30;29.70;;;;;;5093408;28;20183;-76
2022/03/22 12:22:50;;;;;;;28.43;17.40;;;17.10;30.50;;;;;;5092976;28;20495;-76
2022/03/22 12:25:18;;;;;;;33.00;18.40;;;17.00;30.70;;;;;;5095329;28;20440;-75
2022/03/22 12:28:00;;;;;;;30.10;17.10;;;17.00;31.20;;;;;;5094751;28;20409;-75
2022/03/22 12:30:35;;;;;;;30.03;16.57;;;17.00;30.90;;;;;;5072863;28;20433;-75
2022/03/22 12:33:03;;;;;;;31.37;18.70;;;17.00;31.10;;;;;;5093142;28;20433;-76
2022/03/22 12:35:30;;;;;;;29.37;17.80;;;17.20;31.50;;;;;;5093223;28;20420;-75
2022/03/22 12:37:57;;;;;;;34.93;18.60;;;17.50;31.50;;;;;;5092964;28;20802;-76
2022/03/22 12:40:24;;;;;;;34.83;19.60;;;17.50;31.90;;;;;;5093144;28;20417;-76
2022/03/22 12:42:52;;;;;;;31.30;16.80;;;17.60;31.60;;;;;;5093344;28;20944;-76
2022/03/22 12:45:19;;;;;;;29.47;17.10;;;17.90;31.30;;;;;;5094508;28;20443;-76
2022/03/22 12:47:48;;;;;;;31.83;17.53;;;18.00;30.50;;;;;;5080815;28;20417;-75
2022/03/22 12:50:15;;;;;;;29.67;18.43;;;17.90;30.40;;;;;;5093422;28;20961;-75
2022/03/22 12:52:41;;;;;;;31.93;18.20;;;17.70;30.80;;;;;;5087532;28;20448;-76
2022/03/22 12:55:09;;;;;;;32.33;18.60;;;17.80;31.10;;;;;;5092910;28;20423;-75
2022/03/22 12:57:37;;;;;;;32.27;17.43;;;17.80;30.50;;;;;;5074457;28;20269;-76
2022/03/22 13:00:04;;;;;;;32.23;18.17;;;17.70;30.80;;;;;;5093248;28;20431;-74
2022/03/22 13:02:30;;;;;;;41.53;19.57;;;17.70;30.90;;;;;;5093115;28;20427;-74
2022/03/22 13:04:56;;;;;;;30.90;18.20;;;17.40;31.20;;;;;;5093326;28;20424;-75
2022/03/22 13:07:25;;;;;;;31.50;17.80;;;17.50;31.30;;;;;;5093560;28;20280;-75